sensor_id;sensor_type;location;lat;lon;timestamp;P1;durP1;ratioP1;P2;durP2;ratioP2
13230;SDS011;6681;53.254;10.398;2022-08-19T00:01:19;10.20;;;6.70;;
13230;SDS011;6681;53.254;10.398;2022-08-19T00:03:45;7.00;;;5.87;;
13230;SDS011;6681;53.254;10.398;2022-08-19T00:06:11;6.50;;;5.77;;
13230;SDS011;6681;53.254;10.398;2022-08-19T00:08:37;12.40;;;8.17;;
13230;SDS011;6681;53.254;10.398;2022-08-19T00:11:03;6.80;;;5.83;;
13230;SDS011;6681;53.254;10.398;2022-08-19T00:13:28;8.77;;;6.33;;
13230;SDS011;6681;53.254;10.398;2022-08-19T00:15:55;6.83;;;5.70;;
13230;SDS011;6681;53.254;10.398;2022-08-19T00:18:21;8.50;;;6.17;;
13230;SDS011;6681;53.254;10.398;2022-08-19T00:20:46;8.63;;;5.77;;
13230;SDS011;6681;53.254;10.398;2022-08-19T00:23:13;8.17;;;6.90;;
13230;SDS011;6681;53.254;10.398;2022-08-19T00:25:39;8.83;;;4.70;;
13230;SDS011;6681;53.254;10.398;2022-08-19T00:28:05;6.77;;;6.07;;
13230;SDS011;6681;53.254;10.398;2022-08-19T00:30:31;6.73;;;4.73;;
13230;SDS011;6681;53.254;10.398;2022-08-19T00:32:57;6.60;;;6.00;;
13230;SDS011;6681;53.254;10.398;2022-08-19T00:35:23;9.53;;;5.70;;
13230;SDS011;6681;53.254;10.398;2022-08-19T00:37:52;5.73;;;5.23;;
13230;SDS011;6681;53.254;10.398;2022-08-19T00:40:18;8.90;;;5.50;;
13230;SDS011;6681;53.254;10.398;2022-08-19T00:42:45;8.00;;;6.20;;
13230;SDS011;6681;53.254;10.398;2022-08-19T00:45:14;7.13;;;6.47;;
13230;SDS011;6681;53.254;10.398;2022-08-19T00:47:42;9.80;;;6.00;;
13230;SDS011;6681;53.254;10.398;2022-08-19T00:50:10;7.73;;;5.57;;
13230;SDS011;6681;53.254;10.398;2022-08-19T00:52:38;5.90;;;5.30;;
13230;SDS011;6681;53.254;10.398;2022-08-19T00:55:10;5.60;;;5.20;;
13230;SDS011;6681;53.254;10.398;2022-08-19T00:57:46;9.13;;;4.80;;
13230;SDS011;6681;53.254;10.398;2022-08-19T01:00:17;5.80;;;4.70;;
13230;SDS011;6681;53.254;10.398;2022-08-19T01:02:43;6.27;;;5.63;;
13230;SDS011;6681;53.254;10.398;2022-08-19T01:05:11;6.10;;;5.60;;
13230;SDS011;6681;53.254;10.398;2022-08-19T01:07:43;6.10;;;5.50;;
13230;SDS011;6681;53.254;10.398;2022-08-19T01:10:14;8.17;;;5.83;;
13230;SDS011;6681;53.254;10.398;2022-08-19T01:12:44;6.30;;;4.60;;
13230;SDS011;6681;53.254;10.398;2022-08-19T01:15:12;6.43;;;5.43;;
13230;SDS011;6681;53.254;10.398;2022-08-19T01:17:43;7.90;;;5.87;;
13230;SDS011;6681;53.254;10.398;2022-08-19T01:20:17;6.70;;;6.00;;
13230;SDS011;6681;53.254;10.398;2022-08-19T01:22:46;6.27;;;5.33;;
13230;SDS011;6681;53.254;10.398;2022-08-19T01:25:15;7.60;;;6.53;;
13230;SDS011;6681;53.254;10.398;2022-08-19T01:27:43;6.63;;;6.03;;
13230;SDS011;6681;53.254;10.398;2022-08-19T01:30:20;8.57;;;5.97;;
13230;SDS011;6681;53.254;10.398;2022-08-19T01:32:50;6.40;;;5.57;;
13230;SDS011;6681;53.254;10.398;2022-08-19T01:35:16;6.63;;;5.90;;
13230;SDS011;6681;53.254;10.398;2022-08-19T01:37:56;6.90;;;6.23;;
13230;SDS011;6681;53.254;10.398;2022-08-19T01:40:31;7.10;;;6.10;;
13230;SDS011;6681;53.254;10.398;2022-08-19T01:42:58;9.13;;;6.87;;
13230;SDS011;6681;53.254;10.398;2022-08-19T01:45:25;6.23;;;5.63;;
13230;SDS011;6681;53.254;10.398;2022-08-19T01:47:53;7.73;;;5.93;;
13230;SDS011;6681;53.254;10.398;2022-08-19T01:50:19;5.90;;;5.40;;
13230;SDS011;6681;53.254;10.398;2022-08-19T01:52:45;7.17;;;6.07;;
13230;SDS011;6681;53.254;10.398;2022-08-19T01:55:13;7.67;;;6.63;;
13230;SDS011;6681;53.254;10.398;2022-08-19T01:57:42;7.03;;;6.40;;
13230;SDS011;6681;53.254;10.398;2022-08-19T02:00:12;9.40;;;6.10;;
13230;SDS011;6681;53.254;10.398;2022-08-19T02:02:41;6.23;;;5.73;;
13230;SDS011;6681;53.254;10.398;2022-08-19T02:05:07;7.83;;;6.03;;
13230;SDS011;6681;53.254;10.398;2022-08-19T02:07:33;6.47;;;5.87;;
13230;SDS011;6681;53.254;10.398;2022-08-19T02:10:03;9.10;;;5.20;;
13230;SDS011;6681;53.254;10.398;2022-08-19T02:12:33;11.13;;;7.70;;
13230;SDS011;6681;53.254;10.398;2022-08-19T02:15:00;7.30;;;6.03;;
13230;SDS011;6681;53.254;10.398;2022-08-19T02:17:27;7.77;;;7.10;;
13230;SDS011;6681;53.254;10.398;2022-08-19T02:19:54;8.50;;;6.70;;
13230;SDS011;6681;53.254;10.398;2022-08-19T02:22:23;7.17;;;6.57;;
13230;SDS011;6681;53.254;10.398;2022-08-19T02:24:50;6.63;;;5.43;;
13230;SDS011;6681;53.254;10.398;2022-08-19T02:27:19;7.73;;;7.03;;
13230;SDS011;6681;53.254;10.398;2022-08-19T02:29:46;7.57;;;6.17;;
13230;SDS011;6681;53.254;10.398;2022-08-19T02:32:12;8.40;;;6.23;;
13230;SDS011;6681;53.254;10.398;2022-08-19T02:34:38;6.90;;;5.17;;
13230;SDS011;6681;53.254;10.398;2022-08-19T02:37:05;6.07;;;5.47;;
13230;SDS011;6681;53.254;10.398;2022-08-19T02:39:30;5.93;;;5.33;;
13230;SDS011;6681;53.254;10.398;2022-08-19T02:41:56;7.87;;;7.10;;
13230;SDS011;6681;53.254;10.398;2022-08-19T02:44:24;6.37;;;5.80;;
13230;SDS011;6681;53.254;10.398;2022-08-19T02:46:50;5.67;;;5.13;;
13230;SDS011;6681;53.254;10.398;2022-08-19T02:49:15;7.70;;;7.00;;
13230;SDS011;6681;53.254;10.398;2022-08-19T02:51:42;7.80;;;6.10;;
13230;SDS011;6681;53.254;10.398;2022-08-19T02:54:09;5.87;;;5.37;;
13230;SDS011;6681;53.254;10.398;2022-08-19T02:56:38;5.07;;;4.57;;
13230;SDS011;6681;53.254;10.398;2022-08-19T02:59:05;6.40;;;5.70;;
13230;SDS011;6681;53.254;10.398;2022-08-19T03:01:33;16.43;;;7.93;;
13230;SDS011;6681;53.254;10.398;2022-08-19T03:04:00;7.67;;;6.60;;
13230;SDS011;6681;53.254;10.398;2022-08-19T03:06:29;14.33;;;7.23;;
13230;SDS011;6681;53.254;10.398;2022-08-19T03:08:56;5.50;;;4.97;;
13230;SDS011;6681;53.254;10.398;2022-08-19T03:11:23;8.53;;;7.33;;
13230;SDS011;6681;53.254;10.398;2022-08-19T03:13:50;7.73;;;6.50;;
13230;SDS011;6681;53.254;10.398;2022-08-19T03:16:17;9.80;;;7.43;;
13230;SDS011;6681;53.254;10.398;2022-08-19T03:18:43;12.07;;;8.13;;
13230;SDS011;6681;53.254;10.398;2022-08-19T03:21:09;12.13;;;8.77;;
13230;SDS011;6681;53.254;10.398;2022-08-19T03:23:41;12.63;;;7.40;;
13230;SDS011;6681;53.254;10.398;2022-08-19T03:26:06;9.23;;;6.90;;
13230;SDS011;6681;53.254;10.398;2022-08-19T03:28:32;11.27;;;10.00;;
13230;SDS011;6681;53.254;10.398;2022-08-19T03:31:05;11.43;;;8.57;;
13230;SDS011;6681;53.254;10.398;2022-08-19T03:33:35;11.90;;;9.50;;
13230;SDS011;6681;53.254;10.398;2022-08-19T03:36:34;13.97;;;10.53;;
13230;SDS011;6681;53.254;10.398;2022-08-19T03:38:54;13.80;;;9.37;;
13230;SDS011;6681;53.254;10.398;2022-08-19T03:41:22;13.50;;;11.00;;
13230;SDS011;6681;53.254;10.398;2022-08-19T03:43:51;11.77;;;10.27;;
13230;SDS011;6681;53.254;10.398;2022-08-19T03:46:19;14.17;;;10.63;;
13230;SDS011;6681;53.254;10.398;2022-08-19T03:48:53;17.87;;;12.43;;
13230;SDS011;6681;53.254;10.398;2022-08-19T03:51:21;14.70;;;10.80;;
13230;SDS011;6681;53.254;10.398;2022-08-19T03:53:56;15.43;;;12.07;;
13230;SDS011;6681;53.254;10.398;2022-08-19T03:56:23;11.07;;;9.23;;
13230;SDS011;6681;53.254;10.398;2022-08-19T03:58:50;13.87;;;11.07;;
13230;SDS011;6681;53.254;10.398;2022-08-19T04:01:19;20.80;;;13.60;;
13230;SDS011;6681;53.254;10.398;2022-08-19T04:03:47;13.73;;;10.10;;
13230;SDS011;6681;53.254;10.398;2022-08-19T04:08:40;13.37;;;9.53;;
13230;SDS011;6681;53.254;10.398;2022-08-19T04:11:07;13.83;;;8.40;;
13230;SDS011;6681;53.254;10.398;2022-08-19T04:13:34;12.43;;;9.70;;
13230;SDS011;6681;53.254;10.398;2022-08-19T04:15:59;9.63;;;8.63;;
13230;SDS011;6681;53.254;10.398;2022-08-19T04:18:25;11.27;;;9.60;;
13230;SDS011;6681;53.254;10.398;2022-08-19T04:20:51;11.20;;;9.10;;
13230;SDS011;6681;53.254;10.398;2022-08-19T04:23:17;10.93;;;7.33;;
13230;SDS011;6681;53.254;10.398;2022-08-19T04:25:43;13.73;;;9.00;;
13230;SDS011;6681;53.254;10.398;2022-08-19T04:28:10;14.07;;;8.13;;
13230;SDS011;6681;53.254;10.398;2022-08-19T04:30:41;9.03;;;7.83;;
13230;SDS011;6681;53.254;10.398;2022-08-19T04:33:09;10.30;;;8.03;;
13230;SDS011;6681;53.254;10.398;2022-08-19T04:35:39;9.10;;;8.20;;
13230;SDS011;6681;53.254;10.398;2022-08-19T04:38:07;9.43;;;7.50;;
13230;SDS011;6681;53.254;10.398;2022-08-19T04:40:33;7.93;;;7.13;;
13230;SDS011;6681;53.254;10.398;2022-08-19T04:43:18;9.37;;;7.67;;
13230;SDS011;6681;53.254;10.398;2022-08-19T04:45:44;11.43;;;7.57;;
13230;SDS011;6681;53.254;10.398;2022-08-19T04:48:11;7.40;;;6.60;;
13230;SDS011;6681;53.254;10.398;2022-08-19T04:50:39;9.53;;;7.60;;
13230;SDS011;6681;53.254;10.398;2022-08-19T04:53:06;11.93;;;7.57;;
13230;SDS011;6681;53.254;10.398;2022-08-19T04:55:32;12.73;;;9.13;;
13230;SDS011;6681;53.254;10.398;2022-08-19T04:58:00;10.63;;;7.77;;
13230;SDS011;6681;53.254;10.398;2022-08-19T05:00:26;12.30;;;10.77;;
13230;SDS011;6681;53.254;10.398;2022-08-19T05:02:52;12.83;;;10.47;;
13230;SDS011;6681;53.254;10.398;2022-08-19T05:05:18;15.67;;;11.83;;
13230;SDS011;6681;53.254;10.398;2022-08-19T05:07:44;13.20;;;8.60;;
13230;SDS011;6681;53.254;10.398;2022-08-19T05:10:10;9.37;;;8.30;;
13230;SDS011;6681;53.254;10.398;2022-08-19T05:12:36;16.80;;;9.37;;
13230;SDS011;6681;53.254;10.398;2022-08-19T05:15:02;13.17;;;9.67;;
13230;SDS011;6681;53.254;10.398;2022-08-19T05:17:29;12.07;;;8.87;;
13230;SDS011;6681;53.254;10.398;2022-08-19T05:19:55;10.10;;;7.63;;
13230;SDS011;6681;53.254;10.398;2022-08-19T05:22:40;12.80;;;9.53;;
13230;SDS011;6681;53.254;10.398;2022-08-19T05:25:11;9.50;;;8.50;;
13230;SDS011;6681;53.254;10.398;2022-08-19T05:27:39;16.07;;;7.87;;
13230;SDS011;6681;53.254;10.398;2022-08-19T05:30:05;12.07;;;8.83;;
13230;SDS011;6681;53.254;10.398;2022-08-19T05:32:31;13.23;;;8.53;;
13230;SDS011;6681;53.254;10.398;2022-08-19T05:34:57;11.53;;;7.33;;
13230;SDS011;6681;53.254;10.398;2022-08-19T05:37:22;13.10;;;10.90;;
13230;SDS011;6681;53.254;10.398;2022-08-19T05:39:51;9.60;;;8.20;;
13230;SDS011;6681;53.254;10.398;2022-08-19T05:42:17;13.97;;;9.67;;
13230;SDS011;6681;53.254;10.398;2022-08-19T05:44:44;15.00;;;9.33;;
13230;SDS011;6681;53.254;10.398;2022-08-19T05:47:12;14.23;;;9.83;;
13230;SDS011;6681;53.254;10.398;2022-08-19T05:49:39;23.23;;;9.17;;
13230;SDS011;6681;53.254;10.398;2022-08-19T05:52:06;9.23;;;8.00;;
13230;SDS011;6681;53.254;10.398;2022-08-19T05:54:37;17.63;;;9.30;;
13230;SDS011;6681;53.254;10.398;2022-08-19T05:57:05;14.77;;;9.93;;
13230;SDS011;6681;53.254;10.398;2022-08-19T05:59:31;15.73;;;11.20;;
13230;SDS011;6681;53.254;10.398;2022-08-19T06:01:58;12.20;;;9.63;;
13230;SDS011;6681;53.254;10.398;2022-08-19T06:04:25;13.63;;;9.47;;
13230;SDS011;6681;53.254;10.398;2022-08-19T06:06:52;15.10;;;10.07;;
13230;SDS011;6681;53.254;10.398;2022-08-19T06:09:19;11.63;;;7.80;;
13230;SDS011;6681;53.254;10.398;2022-08-19T06:11:49;14.67;;;10.90;;
13230;SDS011;6681;53.254;10.398;2022-08-19T06:14:19;16.07;;;11.27;;
13230;SDS011;6681;53.254;10.398;2022-08-19T06:16:49;15.73;;;11.73;;
13230;SDS011;6681;53.254;10.398;2022-08-19T06:19:19;15.33;;;11.67;;
13230;SDS011;6681;53.254;10.398;2022-08-19T06:21:47;12.50;;;10.60;;
13230;SDS011;6681;53.254;10.398;2022-08-19T06:24:16;17.53;;;12.27;;
13230;SDS011;6681;53.254;10.398;2022-08-19T06:26:44;14.47;;;11.00;;
13230;SDS011;6681;53.254;10.398;2022-08-19T06:29:12;20.13;;;14.00;;
13230;SDS011;6681;53.254;10.398;2022-08-19T06:31:41;22.67;;;16.43;;
13230;SDS011;6681;53.254;10.398;2022-08-19T06:34:09;19.17;;;15.83;;
13230;SDS011;6681;53.254;10.398;2022-08-19T06:36:36;25.97;;;16.83;;
13230;SDS011;6681;53.254;10.398;2022-08-19T06:39:11;28.23;;;18.27;;
13230;SDS011;6681;53.254;10.398;2022-08-19T06:41:39;28.10;;;18.03;;
13230;SDS011;6681;53.254;10.398;2022-08-19T06:44:07;35.30;;;20.67;;
13230;SDS011;6681;53.254;10.398;2022-08-19T06:46:35;31.50;;;22.80;;
13230;SDS011;6681;53.254;10.398;2022-08-19T06:49:01;39.33;;;24.47;;
13230;SDS011;6681;53.254;10.398;2022-08-19T06:51:27;35.80;;;22.03;;
13230;SDS011;6681;53.254;10.398;2022-08-19T06:53:54;39.30;;;26.33;;
13230;SDS011;6681;53.254;10.398;2022-08-19T06:56:22;29.00;;;23.20;;
13230;SDS011;6681;53.254;10.398;2022-08-19T06:58:50;29.83;;;23.20;;
13230;SDS011;6681;53.254;10.398;2022-08-19T07:01:18;39.63;;;25.60;;
13230;SDS011;6681;53.254;10.398;2022-08-19T07:03:44;31.43;;;21.73;;
13230;SDS011;6681;53.254;10.398;2022-08-19T07:06:11;29.93;;;20.97;;
13230;SDS011;6681;53.254;10.398;2022-08-19T07:08:40;27.80;;;19.90;;
13230;SDS011;6681;53.254;10.398;2022-08-19T07:11:08;29.70;;;21.87;;
13230;SDS011;6681;53.254;10.398;2022-08-19T07:13:36;28.90;;;21.33;;
13230;SDS011;6681;53.254;10.398;2022-08-19T07:16:06;22.07;;;17.27;;
13230;SDS011;6681;53.254;10.398;2022-08-19T07:18:33;23.87;;;19.50;;
13230;SDS011;6681;53.254;10.398;2022-08-19T07:23:54;24.47;;;20.40;;
13230;SDS011;6681;53.254;10.398;2022-08-19T07:26:25;26.57;;;19.13;;
13230;SDS011;6681;53.254;10.398;2022-08-19T07:28:53;21.63;;;18.30;;
13230;SDS011;6681;53.254;10.398;2022-08-19T07:31:22;30.20;;;20.90;;
13230;SDS011;6681;53.254;10.398;2022-08-19T07:33:50;29.73;;;21.40;;
13230;SDS011;6681;53.254;10.398;2022-08-19T07:36:18;27.80;;;21.30;;
13230;SDS011;6681;53.254;10.398;2022-08-19T07:38:46;28.70;;;23.30;;
13230;SDS011;6681;53.254;10.398;2022-08-19T07:41:15;30.20;;;23.37;;
13230;SDS011;6681;53.254;10.398;2022-08-19T07:43:43;36.13;;;25.03;;
13230;SDS011;6681;53.254;10.398;2022-08-19T07:46:10;33.30;;;23.93;;
13230;SDS011;6681;53.254;10.398;2022-08-19T07:48:38;34.73;;;25.73;;
13230;SDS011;6681;53.254;10.398;2022-08-19T07:51:06;34.17;;;23.33;;
13230;SDS011;6681;53.254;10.398;2022-08-19T07:53:33;28.23;;;22.23;;
13230;SDS011;6681;53.254;10.398;2022-08-19T07:56:00;35.80;;;25.47;;
13230;SDS011;6681;53.254;10.398;2022-08-19T07:58:30;34.00;;;24.00;;
13230;SDS011;6681;53.254;10.398;2022-08-19T08:00:57;39.93;;;28.20;;
13230;SDS011;6681;53.254;10.398;2022-08-19T08:03:23;40.43;;;26.00;;
13230;SDS011;6681;53.254;10.398;2022-08-19T08:06:09;36.77;;;27.07;;
13230;SDS011;6681;53.254;10.398;2022-08-19T08:08:54;43.67;;;26.83;;
13230;SDS011;6681;53.254;10.398;2022-08-19T08:11:39;43.23;;;28.57;;
13230;SDS011;6681;53.254;10.398;2022-08-19T08:14:14;38.93;;;24.33;;
13230;SDS011;6681;53.254;10.398;2022-08-19T08:16:41;33.60;;;24.23;;
13230;SDS011;6681;53.254;10.398;2022-08-19T08:19:08;40.37;;;27.37;;
13230;SDS011;6681;53.254;10.398;2022-08-19T08:21:35;39.70;;;24.37;;
13230;SDS011;6681;53.254;10.398;2022-08-19T08:24:00;38.40;;;29.83;;
13230;SDS011;6681;53.254;10.398;2022-08-19T08:26:26;39.87;;;28.50;;
13230;SDS011;6681;53.254;10.398;2022-08-19T08:28:52;37.30;;;25.20;;
13230;SDS011;6681;53.254;10.398;2022-08-19T08:31:18;34.10;;;25.77;;
13230;SDS011;6681;53.254;10.398;2022-08-19T08:33:44;44.77;;;30.10;;
13230;SDS011;6681;53.254;10.398;2022-08-19T08:36:11;43.67;;;28.33;;
13230;SDS011;6681;53.254;10.398;2022-08-19T08:38:39;36.17;;;22.47;;
13230;SDS011;6681;53.254;10.398;2022-08-19T08:43:51;47.17;;;28.23;;
13230;SDS011;6681;53.254;10.398;2022-08-19T08:46:19;44.37;;;26.00;;
13230;SDS011;6681;53.254;10.398;2022-08-19T08:49:20;38.23;;;24.63;;
13230;SDS011;6681;53.254;10.398;2022-08-19T08:52:13;39.53;;;25.90;;
13230;SDS011;6681;53.254;10.398;2022-08-19T08:54:47;32.23;;;22.77;;
13230;SDS011;6681;53.254;10.398;2022-08-19T08:57:20;36.43;;;25.20;;
13230;SDS011;6681;53.254;10.398;2022-08-19T08:59:48;37.43;;;24.27;;
13230;SDS011;6681;53.254;10.398;2022-08-19T09:02:18;37.27;;;22.37;;
13230;SDS011;6681;53.254;10.398;2022-08-19T09:04:44;39.33;;;24.43;;
13230;SDS011;6681;53.254;10.398;2022-08-19T09:07:19;36.17;;;23.17;;
13230;SDS011;6681;53.254;10.398;2022-08-19T09:09:51;31.33;;;23.33;;
13230;SDS011;6681;53.254;10.398;2022-08-19T09:12:44;34.50;;;22.50;;
13230;SDS011;6681;53.254;10.398;2022-08-19T09:15:47;33.97;;;23.00;;
13230;SDS011;6681;53.254;10.398;2022-08-19T09:18:13;27.53;;;20.83;;
13230;SDS011;6681;53.254;10.398;2022-08-19T09:20:40;29.73;;;20.23;;
13230;SDS011;6681;53.254;10.398;2022-08-19T09:23:05;26.90;;;19.23;;
13230;SDS011;6681;53.254;10.398;2022-08-19T09:25:31;33.40;;;20.03;;
13230;SDS011;6681;53.254;10.398;2022-08-19T09:27:59;34.27;;;22.27;;
13230;SDS011;6681;53.254;10.398;2022-08-19T09:30:29;34.47;;;21.33;;
13230;SDS011;6681;53.254;10.398;2022-08-19T09:32:58;27.63;;;20.67;;
13230;SDS011;6681;53.254;10.398;2022-08-19T09:35:26;31.13;;;20.60;;
13230;SDS011;6681;53.254;10.398;2022-08-19T09:37:54;32.03;;;20.70;;
13230;SDS011;6681;53.254;10.398;2022-08-19T09:40:20;29.77;;;21.00;;
13230;SDS011;6681;53.254;10.398;2022-08-19T09:42:46;30.60;;;18.67;;
13230;SDS011;6681;53.254;10.398;2022-08-19T09:45:13;32.70;;;19.37;;
13230;SDS011;6681;53.254;10.398;2022-08-19T09:47:40;26.00;;;19.43;;
13230;SDS011;6681;53.254;10.398;2022-08-19T09:50:07;27.37;;;18.90;;
13230;SDS011;6681;53.254;10.398;2022-08-19T09:52:34;28.03;;;18.83;;
13230;SDS011;6681;53.254;10.398;2022-08-19T09:55:06;27.57;;;19.10;;
13230;SDS011;6681;53.254;10.398;2022-08-19T09:57:34;27.27;;;19.50;;
13230;SDS011;6681;53.254;10.398;2022-08-19T10:00:01;29.00;;;19.83;;
13230;SDS011;6681;53.254;10.398;2022-08-19T10:02:29;28.33;;;18.60;;
13230;SDS011;6681;53.254;10.398;2022-08-19T10:04:54;28.67;;;19.70;;
13230;SDS011;6681;53.254;10.398;2022-08-19T10:07:38;32.20;;;21.63;;
13230;SDS011;6681;53.254;10.398;2022-08-19T10:10:05;34.00;;;18.73;;
13230;SDS011;6681;53.254;10.398;2022-08-19T10:12:32;33.83;;;21.90;;
13230;SDS011;6681;53.254;10.398;2022-08-19T10:14:59;32.53;;;20.53;;
13230;SDS011;6681;53.254;10.398;2022-08-19T10:17:25;24.30;;;17.47;;
13230;SDS011;6681;53.254;10.398;2022-08-19T10:19:51;33.83;;;22.30;;
13230;SDS011;6681;53.254;10.398;2022-08-19T10:22:17;27.53;;;19.73;;
13230;SDS011;6681;53.254;10.398;2022-08-19T10:24:44;28.07;;;20.50;;
13230;SDS011;6681;53.254;10.398;2022-08-19T10:27:10;28.63;;;20.23;;
13230;SDS011;6681;53.254;10.398;2022-08-19T10:29:38;30.33;;;19.80;;
13230;SDS011;6681;53.254;10.398;2022-08-19T10:32:04;34.20;;;21.33;;
13230;SDS011;6681;53.254;10.398;2022-08-19T10:34:32;32.23;;;22.13;;
13230;SDS011;6681;53.254;10.398;2022-08-19T10:36:58;37.10;;;23.73;;
13230;SDS011;6681;53.254;10.398;2022-08-19T10:39:25;35.83;;;24.47;;
13230;SDS011;6681;53.254;10.398;2022-08-19T10:41:54;35.40;;;21.63;;
13230;SDS011;6681;53.254;10.398;2022-08-19T10:44:21;35.27;;;24.83;;
13230;SDS011;6681;53.254;10.398;2022-08-19T10:46:48;38.00;;;24.33;;
13230;SDS011;6681;53.254;10.398;2022-08-19T10:49:15;33.40;;;22.43;;
13230;SDS011;6681;53.254;10.398;2022-08-19T10:51:41;39.87;;;25.77;;
13230;SDS011;6681;53.254;10.398;2022-08-19T10:54:26;38.90;;;23.73;;
13230;SDS011;6681;53.254;10.398;2022-08-19T10:57:12;32.80;;;24.37;;
13230;SDS011;6681;53.254;10.398;2022-08-19T10:59:39;34.80;;;25.53;;
13230;SDS011;6681;53.254;10.398;2022-08-19T11:02:06;32.27;;;21.70;;
13230;SDS011;6681;53.254;10.398;2022-08-19T11:04:35;40.03;;;24.33;;
13230;SDS011;6681;53.254;10.398;2022-08-19T11:07:02;35.37;;;26.60;;
13230;SDS011;6681;53.254;10.398;2022-08-19T11:09:28;38.13;;;26.17;;
13230;SDS011;6681;53.254;10.398;2022-08-19T11:11:54;33.27;;;24.13;;
13230;SDS011;6681;53.254;10.398;2022-08-19T11:14:21;35.43;;;23.80;;
13230;SDS011;6681;53.254;10.398;2022-08-19T11:16:50;35.80;;;24.77;;
13230;SDS011;6681;53.254;10.398;2022-08-19T11:19:20;42.00;;;27.03;;
13230;SDS011;6681;53.254;10.398;2022-08-19T11:21:48;38.53;;;27.40;;
13230;SDS011;6681;53.254;10.398;2022-08-19T11:24:16;43.30;;;26.90;;
13230;SDS011;6681;53.254;10.398;2022-08-19T11:26:44;36.50;;;25.70;;
13230;SDS011;6681;53.254;10.398;2022-08-19T11:29:11;41.00;;;28.23;;
13230;SDS011;6681;53.254;10.398;2022-08-19T11:31:39;37.57;;;24.87;;
13230;SDS011;6681;53.254;10.398;2022-08-19T11:34:08;33.40;;;25.83;;
13230;SDS011;6681;53.254;10.398;2022-08-19T11:36:37;36.60;;;25.37;;
13230;SDS011;6681;53.254;10.398;2022-08-19T11:39:05;38.30;;;26.97;;
13230;SDS011;6681;53.254;10.398;2022-08-19T11:41:33;35.77;;;25.83;;
13230;SDS011;6681;53.254;10.398;2022-08-19T11:43:59;45.67;;;25.33;;
13230;SDS011;6681;53.254;10.398;2022-08-19T11:46:25;36.17;;;24.23;;
13230;SDS011;6681;53.254;10.398;2022-08-19T11:48:54;38.60;;;25.53;;
13230;SDS011;6681;53.254;10.398;2022-08-19T11:51:25;38.23;;;26.83;;
13230;SDS011;6681;53.254;10.398;2022-08-19T11:53:52;36.57;;;27.23;;
13230;SDS011;6681;53.254;10.398;2022-08-19T11:56:19;35.53;;;28.20;;
13230;SDS011;6681;53.254;10.398;2022-08-19T11:58:46;41.90;;;30.20;;
13230;SDS011;6681;53.254;10.398;2022-08-19T12:01:12;46.33;;;31.70;;
13230;SDS011;6681;53.254;10.398;2022-08-19T12:03:41;41.00;;;31.50;;
13230;SDS011;6681;53.254;10.398;2022-08-19T12:06:09;37.10;;;27.73;;
13230;SDS011;6681;53.254;10.398;2022-08-19T12:08:40;39.47;;;28.43;;
13230;SDS011;6681;53.254;10.398;2022-08-19T12:11:06;41.23;;;29.07;;
13230;SDS011;6681;53.254;10.398;2022-08-19T12:13:35;39.40;;;30.00;;
13230;SDS011;6681;53.254;10.398;2022-08-19T12:16:21;37.40;;;26.60;;
13230;SDS011;6681;53.254;10.398;2022-08-19T12:18:49;37.10;;;27.83;;
13230;SDS011;6681;53.254;10.398;2022-08-19T12:21:19;41.27;;;26.80;;
13230;SDS011;6681;53.254;10.398;2022-08-19T12:23:47;34.93;;;27.70;;
13230;SDS011;6681;53.254;10.398;2022-08-19T12:26:14;30.63;;;26.60;;
13230;SDS011;6681;53.254;10.398;2022-08-19T12:28:40;36.63;;;26.93;;
13230;SDS011;6681;53.254;10.398;2022-08-19T12:31:07;40.03;;;30.33;;
13230;SDS011;6681;53.254;10.398;2022-08-19T12:33:34;35.30;;;27.27;;
13230;SDS011;6681;53.254;10.398;2022-08-19T12:36:00;38.67;;;30.03;;
13230;SDS011;6681;53.254;10.398;2022-08-19T12:38:28;36.33;;;28.67;;
13230;SDS011;6681;53.254;10.398;2022-08-19T12:40:54;29.73;;;26.10;;
13230;SDS011;6681;53.254;10.398;2022-08-19T12:43:20;30.73;;;25.40;;
13230;SDS011;6681;53.254;10.398;2022-08-19T12:45:46;33.93;;;27.80;;
13230;SDS011;6681;53.254;10.398;2022-08-19T12:48:12;45.90;;;28.90;;
13230;SDS011;6681;53.254;10.398;2022-08-19T12:50:39;37.97;;;30.27;;
13230;SDS011;6681;53.254;10.398;2022-08-19T12:53:06;35.10;;;29.97;;
13230;SDS011;6681;53.254;10.398;2022-08-19T12:55:32;33.80;;;28.63;;
13230;SDS011;6681;53.254;10.398;2022-08-19T12:57:57;31.70;;;27.20;;
13230;SDS011;6681;53.254;10.398;2022-08-19T13:00:25;38.77;;;30.90;;
13230;SDS011;6681;53.254;10.398;2022-08-19T13:02:51;32.63;;;28.20;;
13230;SDS011;6681;53.254;10.398;2022-08-19T13:05:19;35.13;;;29.13;;
13230;SDS011;6681;53.254;10.398;2022-08-19T13:07:48;27.57;;;24.60;;
13230;SDS011;6681;53.254;10.398;2022-08-19T13:10:19;31.50;;;25.40;;
13230;SDS011;6681;53.254;10.398;2022-08-19T13:12:47;32.17;;;25.80;;
13230;SDS011;6681;53.254;10.398;2022-08-19T13:15:14;37.43;;;26.23;;
13230;SDS011;6681;53.254;10.398;2022-08-19T13:17:44;29.93;;;24.20;;
13230;SDS011;6681;53.254;10.398;2022-08-19T13:20:13;29.23;;;25.77;;
13230;SDS011;6681;53.254;10.398;2022-08-19T13:22:38;29.67;;;24.00;;
13230;SDS011;6681;53.254;10.398;2022-08-19T13:25:05;32.50;;;26.07;;
13230;SDS011;6681;53.254;10.398;2022-08-19T13:27:32;28.63;;;24.03;;
13230;SDS011;6681;53.254;10.398;2022-08-19T13:29:58;26.43;;;23.33;;
13230;SDS011;6681;53.254;10.398;2022-08-19T13:32:42;24.43;;;21.93;;
13230;SDS011;6681;53.254;10.398;2022-08-19T13:35:26;28.27;;;23.67;;
13230;SDS011;6681;53.254;10.398;2022-08-19T13:37:52;27.03;;;23.57;;
13230;SDS011;6681;53.254;10.398;2022-08-19T13:40:18;23.77;;;18.73;;
13230;SDS011;6681;53.254;10.398;2022-08-19T13:42:48;31.77;;;22.10;;
13230;SDS011;6681;53.254;10.398;2022-08-19T13:45:16;22.80;;;20.20;;
13230;SDS011;6681;53.254;10.398;2022-08-19T13:47:45;26.67;;;21.60;;
13230;SDS011;6681;53.254;10.398;2022-08-19T13:50:12;25.00;;;21.27;;
13230;SDS011;6681;53.254;10.398;2022-08-19T13:52:41;25.47;;;21.97;;
13230;SDS011;6681;53.254;10.398;2022-08-19T13:55:07;26.67;;;22.20;;
13230;SDS011;6681;53.254;10.398;2022-08-19T13:57:34;31.83;;;25.60;;
13230;SDS011;6681;53.254;10.398;2022-08-19T14:00:00;29.90;;;21.90;;
13230;SDS011;6681;53.254;10.398;2022-08-19T14:02:27;27.87;;;20.93;;
13230;SDS011;6681;53.254;10.398;2022-08-19T14:04:53;24.20;;;21.70;;
13230;SDS011;6681;53.254;10.398;2022-08-19T14:07:18;24.93;;;20.20;;
13230;SDS011;6681;53.254;10.398;2022-08-19T14:09:44;24.47;;;20.37;;
13230;SDS011;6681;53.254;10.398;2022-08-19T14:12:10;23.53;;;19.70;;
13230;SDS011;6681;53.254;10.398;2022-08-19T14:14:39;22.33;;;19.10;;
13230;SDS011;6681;53.254;10.398;2022-08-19T14:17:07;21.17;;;18.93;;
13230;SDS011;6681;53.254;10.398;2022-08-19T14:19:34;22.30;;;18.80;;
13230;SDS011;6681;53.254;10.398;2022-08-19T14:22:00;22.83;;;19.47;;
13230;SDS011;6681;53.254;10.398;2022-08-19T14:24:26;24.83;;;21.90;;
13230;SDS011;6681;53.254;10.398;2022-08-19T14:26:52;24.53;;;21.60;;
13230;SDS011;6681;53.254;10.398;2022-08-19T14:29:18;23.33;;;20.73;;
13230;SDS011;6681;53.254;10.398;2022-08-19T14:31:43;22.73;;;17.60;;
13230;SDS011;6681;53.254;10.398;2022-08-19T14:34:09;21.43;;;19.27;;
13230;SDS011;6681;53.254;10.398;2022-08-19T14:36:36;23.63;;;18.53;;
13230;SDS011;6681;53.254;10.398;2022-08-19T14:39:02;22.40;;;17.23;;
13230;SDS011;6681;53.254;10.398;2022-08-19T14:41:28;20.03;;;17.93;;
13230;SDS011;6681;53.254;10.398;2022-08-19T14:43:55;25.50;;;19.90;;